sensor_id;sensor_type;location;lat;lon;timestamp;P1;durP1;ratioP1;P2;durP2;ratioP2
56343;SDS011;42245;42.058;24.700;2023-06-26T00:01:17;13.20;;;8.82;;
56343;SDS011;42245;42.058;24.700;2023-06-26T00:03:46;14.23;;;8.57;;
56343;SDS011;42245;42.058;24.700;2023-06-26T00:06:11;16.05;;;9.40;;
56343;SDS011;42245;42.058;24.700;2023-06-26T00:08:37;13.25;;;8.40;;
56343;SDS011;42245;42.058;24.700;2023-06-26T00:11:02;14.20;;;9.30;;
56343;SDS011;42245;42.058;24.700;2023-06-26T00:13:27;13.18;;;8.90;;
56343;SDS011;42245;42.058;24.700;2023-06-26T00:15:53;14.85;;;9.63;;
56343;SDS011;42245;42.058;24.700;2023-06-26T00:18:18;17.58;;;8.98;;
56343;SDS011;42245;42.058;24.700;2023-06-26T00:20:44;14.45;;;9.55;;
56343;SDS011;42245;42.058;24.700;2023-06-26T00:23:11;13.90;;;9.80;;
56343;SDS011;42245;42.058;24.700;2023-06-26T00:25:38;15.75;;;10.40;;
56343;SDS011;42245;42.058;24.700;2023-06-26T00:28:03;15.57;;;9.50;;
56343;SDS011;42245;42.058;24.700;2023-06-26T00:30:29;14.43;;;9.85;;
56343;SDS011;42245;42.058;24.700;2023-06-26T00:32:54;20.88;;;10.43;;
56343;SDS011;42245;42.058;24.700;2023-06-26T00:35:19;15.50;;;9.57;;
56343;SDS011;42245;42.058;24.700;2023-06-26T00:37:45;13.88;;;9.55;;
56343;SDS011;42245;42.058;24.700;2023-06-26T00:40:10;15.00;;;9.98;;
56343;SDS011;42245;42.058;24.700;2023-06-26T00:42:37;18.73;;;10.02;;
56343;SDS011;42245;42.058;24.700;2023-06-26T00:45:02;18.95;;;9.07;;
56343;SDS011;42245;42.058;24.700;2023-06-26T00:47:28;17.55;;;10.63;;
56343;SDS011;42245;42.058;24.700;2023-06-26T00:49:54;16.48;;;9.82;;
56343;SDS011;42245;42.058;24.700;2023-06-26T00:52:19;12.80;;;9.32;;
56343;SDS011;42245;42.058;24.700;2023-06-26T00:54:45;15.55;;;9.88;;
56343;SDS011;42245;42.058;24.700;2023-06-26T00:57:10;17.08;;;10.02;;
56343;SDS011;42245;42.058;24.700;2023-06-26T00:59:36;16.63;;;10.27;;
56343;SDS011;42245;42.058;24.700;2023-06-26T01:02:01;15.77;;;9.75;;
56343;SDS011;42245;42.058;24.700;2023-06-26T01:04:27;14.35;;;10.40;;
56343;SDS011;42245;42.058;24.700;2023-06-26T01:06:52;15.98;;;10.15;;
56343;SDS011;42245;42.058;24.700;2023-06-26T01:09:18;15.55;;;10.23;;
56343;SDS011;42245;42.058;24.700;2023-06-26T01:11:44;16.48;;;10.10;;
56343;SDS011;42245;42.058;24.700;2023-06-26T01:14:10;17.30;;;9.82;;
56343;SDS011;42245;42.058;24.700;2023-06-26T01:16:35;19.10;;;10.35;;
56343;SDS011;42245;42.058;24.700;2023-06-26T01:19:03;17.90;;;10.35;;
56343;SDS011;42245;42.058;24.700;2023-06-26T01:21:32;16.40;;;10.10;;
56343;SDS011;42245;42.058;24.700;2023-06-26T01:26:29;15.70;;;10.27;;
56343;SDS011;42245;42.058;24.700;2023-06-26T01:28:56;20.63;;;10.32;;
56343;SDS011;42245;42.058;24.700;2023-06-26T01:31:22;19.77;;;10.10;;
56343;SDS011;42245;42.058;24.700;2023-06-26T01:33:48;21.50;;;11.65;;
56343;SDS011;42245;42.058;24.700;2023-06-26T01:36:14;18.00;;;10.75;;
56343;SDS011;42245;42.058;24.700;2023-06-26T01:38:40;16.08;;;10.38;;
56343;SDS011;42245;42.058;24.700;2023-06-26T01:41:05;15.23;;;10.13;;
56343;SDS011;42245;42.058;24.700;2023-06-26T01:52:03;20.40;;;10.93;;
56343;SDS011;42245;42.058;24.700;2023-06-26T01:54:33;16.80;;;10.80;;
56343;SDS011;42245;42.058;24.700;2023-06-26T01:57:03;17.38;;;11.00;;
56343;SDS011;42245;42.058;24.700;2023-06-26T01:59:29;21.13;;;10.70;;
56343;SDS011;42245;42.058;24.700;2023-06-26T02:01:57;16.23;;;10.45;;
56343;SDS011;42245;42.058;24.700;2023-06-26T02:04:22;18.13;;;11.20;;
56343;SDS011;42245;42.058;24.700;2023-06-26T02:06:47;16.88;;;11.02;;
56343;SDS011;42245;42.058;24.700;2023-06-26T02:09:13;17.77;;;10.65;;
56343;SDS011;42245;42.058;24.700;2023-06-26T02:11:38;16.80;;;11.57;;
56343;SDS011;42245;42.058;24.700;2023-06-26T02:14:04;17.27;;;11.00;;
56343;SDS011;42245;42.058;24.700;2023-06-26T02:16:29;16.20;;;11.30;;
56343;SDS011;42245;42.058;24.700;2023-06-26T02:18:54;17.98;;;11.02;;
56343;SDS011;42245;42.058;24.700;2023-06-26T02:21:22;18.63;;;11.02;;
56343;SDS011;42245;42.058;24.700;2023-06-26T02:23:47;20.45;;;10.43;;
56343;SDS011;42245;42.058;24.700;2023-06-26T02:26:13;17.13;;;10.98;;
56343;SDS011;42245;42.058;24.700;2023-06-26T02:28:38;17.33;;;10.68;;
56343;SDS011;42245;42.058;24.700;2023-06-26T02:31:03;17.77;;;11.30;;
56343;SDS011;42245;42.058;24.700;2023-06-26T02:33:29;16.73;;;11.40;;
56343;SDS011;42245;42.058;24.700;2023-06-26T02:35:55;17.88;;;11.10;;
56343;SDS011;42245;42.058;24.700;2023-06-26T02:38:21;20.55;;;11.38;;
56343;SDS011;42245;42.058;24.700;2023-06-26T02:40:46;17.33;;;10.38;;
56343;SDS011;42245;42.058;24.700;2023-06-26T02:43:11;17.45;;;11.38;;
56343;SDS011;42245;42.058;24.700;2023-06-26T02:45:37;21.13;;;11.73;;
56343;SDS011;42245;42.058;24.700;2023-06-26T02:48:02;17.67;;;10.65;;
56343;SDS011;42245;42.058;24.700;2023-06-26T02:50:28;18.15;;;11.63;;
56343;SDS011;42245;42.058;24.700;2023-06-26T02:52:53;16.98;;;11.02;;
56343;SDS011;42245;42.058;24.700;2023-06-26T02:55:19;20.35;;;11.27;;
56343;SDS011;42245;42.058;24.700;2023-06-26T02:57:45;18.80;;;10.85;;
56343;SDS011;42245;42.058;24.700;2023-06-26T03:00:11;18.67;;;11.82;;
56343;SDS011;42245;42.058;24.700;2023-06-26T03:02:38;17.10;;;10.88;;
56343;SDS011;42245;42.058;24.700;2023-06-26T03:05:03;16.38;;;10.55;;
56343;SDS011;42245;42.058;24.700;2023-06-26T03:07:29;21.40;;;11.25;;
56343;SDS011;42245;42.058;24.700;2023-06-26T03:09:55;19.95;;;10.85;;
56343;SDS011;42245;42.058;24.700;2023-06-26T03:12:20;21.30;;;11.60;;
56343;SDS011;42245;42.058;24.700;2023-06-26T03:14:45;17.63;;;11.43;;
56343;SDS011;42245;42.058;24.700;2023-06-26T03:17:11;17.80;;;11.48;;
56343;SDS011;42245;42.058;24.700;2023-06-26T03:19:36;19.73;;;11.32;;
56343;SDS011;42245;42.058;24.700;2023-06-26T03:22:01;19.75;;;11.25;;
56343;SDS011;42245;42.058;24.700;2023-06-26T03:24:28;15.85;;;10.82;;
56343;SDS011;42245;42.058;24.700;2023-06-26T03:26:54;16.50;;;10.93;;
56343;SDS011;42245;42.058;24.700;2023-06-26T03:29:19;19.35;;;11.82;;
56343;SDS011;42245;42.058;24.700;2023-06-26T03:31:44;22.02;;;11.82;;
56343;SDS011;42245;42.058;24.700;2023-06-26T03:34:10;17.70;;;11.20;;
56343;SDS011;42245;42.058;24.700;2023-06-26T03:36:35;20.00;;;11.82;;
56343;SDS011;42245;42.058;24.700;2023-06-26T03:39:01;18.98;;;11.80;;
56343;SDS011;42245;42.058;24.700;2023-06-26T03:41:26;18.02;;;11.70;;
56343;SDS011;42245;42.058;24.700;2023-06-26T03:43:51;17.35;;;11.43;;
56343;SDS011;42245;42.058;24.700;2023-06-26T03:46:17;16.85;;;11.82;;
56343;SDS011;42245;42.058;24.700;2023-06-26T03:48:42;17.83;;;12.02;;
56343;SDS011;42245;42.058;24.700;2023-06-26T03:51:08;22.10;;;12.45;;
56343;SDS011;42245;42.058;24.700;2023-06-26T03:53:33;17.45;;;11.70;;
56343;SDS011;42245;42.058;24.700;2023-06-26T03:55:59;17.02;;;11.75;;
56343;SDS011;42245;42.058;24.700;2023-06-26T03:58:24;20.52;;;12.35;;
56343;SDS011;42245;42.058;24.700;2023-06-26T04:00:50;17.83;;;11.95;;
56343;SDS011;42245;42.058;24.700;2023-06-26T04:03:15;19.17;;;12.32;;
56343;SDS011;42245;42.058;24.700;2023-06-26T04:05:41;21.00;;;12.45;;
56343;SDS011;42245;42.058;24.700;2023-06-26T04:08:06;18.30;;;11.50;;
56343;SDS011;42245;42.058;24.700;2023-06-26T04:10:33;19.88;;;12.70;;
56343;SDS011;42245;42.058;24.700;2023-06-26T04:12:58;17.33;;;12.75;;
56343;SDS011;42245;42.058;24.700;2023-06-26T04:15:23;17.27;;;12.50;;
56343;SDS011;42245;42.058;24.700;2023-06-26T04:17:49;18.80;;;12.85;;
56343;SDS011;42245;42.058;24.700;2023-06-26T04:20:14;23.17;;;13.50;;
56343;SDS011;42245;42.058;24.700;2023-06-26T04:22:40;20.67;;;13.07;;
56343;SDS011;42245;42.058;24.700;2023-06-26T04:25:05;19.58;;;13.43;;
56343;SDS011;42245;42.058;24.700;2023-06-26T04:27:30;18.85;;;12.63;;
56343;SDS011;42245;42.058;24.700;2023-06-26T04:29:56;18.27;;;13.02;;
56343;SDS011;42245;42.058;24.700;2023-06-26T04:32:21;19.85;;;12.95;;
56343;SDS011;42245;42.058;24.700;2023-06-26T04:34:47;20.98;;;13.35;;
56343;SDS011;42245;42.058;24.700;2023-06-26T04:37:13;19.58;;;12.82;;
56343;SDS011;42245;42.058;24.700;2023-06-26T04:39:42;22.30;;;13.43;;
56343;SDS011;42245;42.058;24.700;2023-06-26T04:42:07;20.08;;;13.05;;
56343;SDS011;42245;42.058;24.700;2023-06-26T04:44:34;17.02;;;12.95;;
56343;SDS011;42245;42.058;24.700;2023-06-26T04:46:59;18.38;;;12.85;;
56343;SDS011;42245;42.058;24.700;2023-06-26T04:49:26;18.35;;;13.30;;
56343;SDS011;42245;42.058;24.700;2023-06-26T04:51:52;19.10;;;13.48;;
56343;SDS011;42245;42.058;24.700;2023-06-26T04:54:18;18.90;;;13.40;;
56343;SDS011;42245;42.058;24.700;2023-06-26T04:56:44;19.35;;;12.18;;
56343;SDS011;42245;42.058;24.700;2023-06-26T04:59:12;18.10;;;12.07;;
56343;SDS011;42245;42.058;24.700;2023-06-26T05:01:38;16.95;;;11.65;;
56343;SDS011;42245;42.058;24.700;2023-06-26T05:04:04;15.68;;;11.35;;
56343;SDS011;42245;42.058;24.700;2023-06-26T05:06:30;15.77;;;11.18;;
56343;SDS011;42245;42.058;24.700;2023-06-26T05:08:55;15.63;;;12.25;;
56343;SDS011;42245;42.058;24.700;2023-06-26T05:11:21;17.85;;;12.30;;
56343;SDS011;42245;42.058;24.700;2023-06-26T05:13:46;16.17;;;11.40;;
56343;SDS011;42245;42.058;24.700;2023-06-26T05:16:11;16.13;;;10.82;;
56343;SDS011;42245;42.058;24.700;2023-06-26T05:18:37;28.27;;;11.35;;
56343;SDS011;42245;42.058;24.700;2023-06-26T05:21:02;18.55;;;10.95;;
56343;SDS011;42245;42.058;24.700;2023-06-26T05:23:31;13.82;;;10.90;;
56343;SDS011;42245;42.058;24.700;2023-06-26T05:25:57;15.05;;;10.93;;
56343;SDS011;42245;42.058;24.700;2023-06-26T05:28:23;14.88;;;10.63;;
56343;SDS011;42245;42.058;24.700;2023-06-26T05:30:50;15.10;;;10.75;;
56343;SDS011;42245;42.058;24.700;2023-06-26T05:33:16;14.43;;;10.68;;
56343;SDS011;42245;42.058;24.700;2023-06-26T05:35:43;16.00;;;10.93;;
56343;SDS011;42245;42.058;24.700;2023-06-26T05:38:10;16.88;;;11.13;;
56343;SDS011;42245;42.058;24.700;2023-06-26T05:40:36;13.90;;;10.40;;
56343;SDS011;42245;42.058;24.700;2023-06-26T05:43:01;13.35;;;9.73;;
56343;SDS011;42245;42.058;24.700;2023-06-26T05:45:27;15.40;;;10.38;;
56343;SDS011;42245;42.058;24.700;2023-06-26T05:47:52;13.50;;;10.13;;
56343;SDS011;42245;42.058;24.700;2023-06-26T05:50:18;16.67;;;10.68;;
56343;SDS011;42245;42.058;24.700;2023-06-26T05:52:44;19.45;;;10.55;;
56343;SDS011;42245;42.058;24.700;2023-06-26T05:55:11;14.63;;;9.88;;
56343;SDS011;42245;42.058;24.700;2023-06-26T05:57:37;11.43;;;9.57;;
56343;SDS011;42245;42.058;24.700;2023-06-26T06:00:03;13.02;;;9.73;;
56343;SDS011;42245;42.058;24.700;2023-06-26T06:02:30;17.02;;;9.70;;
56343;SDS011;42245;42.058;24.700;2023-06-26T06:04:56;13.27;;;9.10;;
56343;SDS011;42245;42.058;24.700;2023-06-26T06:07:21;14.00;;;9.52;;
56343;SDS011;42245;42.058;24.700;2023-06-26T06:09:47;11.52;;;9.23;;
56343;SDS011;42245;42.058;24.700;2023-06-26T06:12:12;15.07;;;10.52;;
56343;SDS011;42245;42.058;24.700;2023-06-26T06:14:37;13.70;;;10.07;;
56343;SDS011;42245;42.058;24.700;2023-06-26T06:17:03;15.18;;;9.52;;
56343;SDS011;42245;42.058;24.700;2023-06-26T06:19:28;15.45;;;8.93;;
56343;SDS011;42245;42.058;24.700;2023-06-26T06:21:53;11.00;;;8.82;;
56343;SDS011;42245;42.058;24.700;2023-06-26T06:24:19;12.32;;;9.23;;
56343;SDS011;42245;42.058;24.700;2023-06-26T06:26:45;13.07;;;9.05;;
56343;SDS011;42245;42.058;24.700;2023-06-26T06:29:10;13.27;;;9.25;;
56343;SDS011;42245;42.058;24.700;2023-06-26T06:31:35;11.07;;;9.13;;
56343;SDS011;42245;42.058;24.700;2023-06-26T06:34:01;12.40;;;8.98;;
56343;SDS011;42245;42.058;24.700;2023-06-26T06:36:26;16.00;;;9.75;;
56343;SDS011;42245;42.058;24.700;2023-06-26T06:38:52;14.80;;;8.75;;
56343;SDS011;42245;42.058;24.700;2023-06-26T06:41:17;12.85;;;8.73;;
56343;SDS011;42245;42.058;24.700;2023-06-26T06:43:43;16.23;;;9.88;;
56343;SDS011;42245;42.058;24.700;2023-06-26T06:46:08;13.38;;;8.90;;
56343;SDS011;42245;42.058;24.700;2023-06-26T06:48:34;11.75;;;8.85;;
56343;SDS011;42245;42.058;24.700;2023-06-26T06:50:59;11.38;;;9.10;;
56343;SDS011;42245;42.058;24.700;2023-06-26T06:53:25;11.68;;;9.20;;
56343;SDS011;42245;42.058;24.700;2023-06-26T06:55:50;12.93;;;9.15;;
56343;SDS011;42245;42.058;24.700;2023-06-26T06:58:15;12.07;;;9.43;;
56343;SDS011;42245;42.058;24.700;2023-06-26T07:00:42;10.82;;;8.70;;
56343;SDS011;42245;42.058;24.700;2023-06-26T07:03:08;13.68;;;9.18;;
56343;SDS011;42245;42.058;24.700;2023-06-26T07:05:33;13.48;;;8.52;;
56343;SDS011;42245;42.058;24.700;2023-06-26T07:07:59;11.38;;;8.50;;
56343;SDS011;42245;42.058;24.700;2023-06-26T07:10:24;11.98;;;8.30;;
56343;SDS011;42245;42.058;24.700;2023-06-26T07:12:49;12.30;;;7.55;;
56343;SDS011;42245;42.058;24.700;2023-06-26T07:15:16;11.82;;;7.55;;
56343;SDS011;42245;42.058;24.700;2023-06-26T07:17:41;10.60;;;7.50;;
56343;SDS011;42245;42.058;24.700;2023-06-26T07:20:07;13.15;;;7.60;;
56343;SDS011;42245;42.058;24.700;2023-06-26T07:22:33;14.50;;;8.60;;
56343;SDS011;42245;42.058;24.700;2023-06-26T07:25:00;10.00;;;7.70;;
56343;SDS011;42245;42.058;24.700;2023-06-26T07:27:25;11.27;;;8.02;;
56343;SDS011;42245;42.058;24.700;2023-06-26T07:29:51;11.02;;;7.80;;
56343;SDS011;42245;42.058;24.700;2023-06-26T07:32:16;9.98;;;7.53;;
56343;SDS011;42245;42.058;24.700;2023-06-26T07:34:41;8.73;;;6.82;;
56343;SDS011;42245;42.058;24.700;2023-06-26T07:37:07;16.98;;;8.25;;
56343;SDS011;42245;42.058;24.700;2023-06-26T07:39:33;12.52;;;8.05;;
56343;SDS011;42245;42.058;24.700;2023-06-26T07:41:58;11.73;;;7.63;;
56343;SDS011;42245;42.058;24.700;2023-06-26T07:44:24;12.65;;;7.47;;
56343;SDS011;42245;42.058;24.700;2023-06-26T07:46:50;11.70;;;7.50;;
56343;SDS011;42245;42.058;24.700;2023-06-26T07:49:15;11.82;;;7.53;;
56343;SDS011;42245;42.058;24.700;2023-06-26T07:51:40;11.52;;;8.07;;
56343;SDS011;42245;42.058;24.700;2023-06-26T07:54:06;12.20;;;7.85;;
56343;SDS011;42245;42.058;24.700;2023-06-26T07:56:34;13.05;;;8.45;;
56343;SDS011;42245;42.058;24.700;2023-06-26T07:59:00;18.67;;;8.88;;
56343;SDS011;42245;42.058;24.700;2023-06-26T08:01:29;9.73;;;8.10;;
56343;SDS011;42245;42.058;24.700;2023-06-26T08:03:54;12.80;;;8.38;;
56343;SDS011;42245;42.058;24.700;2023-06-26T08:06:20;10.20;;;7.95;;
56343;SDS011;42245;42.058;24.700;2023-06-26T08:08:45;10.07;;;8.38;;
56343;SDS011;42245;42.058;24.700;2023-06-26T08:11:10;8.85;;;7.35;;
56343;SDS011;42245;42.058;24.700;2023-06-26T08:13:36;10.30;;;7.60;;
56343;SDS011;42245;42.058;24.700;2023-06-26T08:16:01;12.50;;;7.40;;
56343;SDS011;42245;42.058;24.700;2023-06-26T08:18:27;12.73;;;7.10;;
56343;SDS011;42245;42.058;24.700;2023-06-26T08:20:52;12.35;;;7.28;;
56343;SDS011;42245;42.058;24.700;2023-06-26T08:23:17;10.48;;;7.22;;
56343;SDS011;42245;42.058;24.700;2023-06-26T08:25:43;9.30;;;6.57;;
56343;SDS011;42245;42.058;24.700;2023-06-26T08:28:08;9.98;;;6.18;;
56343;SDS011;42245;42.058;24.700;2023-06-26T08:30:34;8.20;;;5.97;;
56343;SDS011;42245;42.058;24.700;2023-06-26T08:32:59;13.55;;;6.20;;
56343;SDS011;42245;42.058;24.700;2023-06-26T08:35:25;8.43;;;5.70;;
56343;SDS011;42245;42.058;24.700;2023-06-26T08:37:50;9.15;;;5.95;;
56343;SDS011;42245;42.058;24.700;2023-06-26T08:40:16;9.43;;;6.00;;
56343;SDS011;42245;42.058;24.700;2023-06-26T08:42:44;11.80;;;6.75;;
56343;SDS011;42245;42.058;24.700;2023-06-26T08:45:09;10.80;;;6.88;;
56343;SDS011;42245;42.058;24.700;2023-06-26T08:47:35;12.02;;;6.70;;
56343;SDS011;42245;42.058;24.700;2023-06-26T08:50:13;8.18;;;6.15;;
56343;SDS011;42245;42.058;24.700;2023-06-26T08:55:18;7.45;;;5.40;;
56343;SDS011;42245;42.058;24.700;2023-06-26T08:57:47;8.05;;;6.43;;
56343;SDS011;42245;42.058;24.700;2023-06-26T09:00:12;8.13;;;5.85;;
56343;SDS011;42245;42.058;24.700;2023-06-26T09:02:39;11.35;;;6.30;;
56343;SDS011;42245;42.058;24.700;2023-06-26T09:05:06;6.90;;;5.80;;
56343;SDS011;42245;42.058;24.700;2023-06-26T09:07:31;11.43;;;6.15;;
56343;SDS011;42245;42.058;24.700;2023-06-26T09:09:57;7.57;;;5.93;;
56343;SDS011;42245;42.058;24.700;2023-06-26T09:12:23;10.52;;;6.60;;
56343;SDS011;42245;42.058;24.700;2023-06-26T09:14:48;7.38;;;6.20;;
56343;SDS011;42245;42.058;24.700;2023-06-26T09:17:15;8.00;;;5.97;;
56343;SDS011;42245;42.058;24.700;2023-06-26T09:19:40;8.93;;;6.32;;
56343;SDS011;42245;42.058;24.700;2023-06-26T09:22:10;9.13;;;6.32;;
56343;SDS011;42245;42.058;24.700;2023-06-26T09:24:37;11.05;;;5.93;;
56343;SDS011;42245;42.058;24.700;2023-06-26T09:27:03;10.20;;;6.55;;
56343;SDS011;42245;42.058;24.700;2023-06-26T09:29:29;11.60;;;6.47;;
56343;SDS011;42245;42.058;24.700;2023-06-26T09:31:55;9.70;;;6.13;;
56343;SDS011;42245;42.058;24.700;2023-06-26T09:34:21;9.85;;;6.25;;
56343;SDS011;42245;42.058;24.700;2023-06-26T09:36:47;9.23;;;6.40;;
56343;SDS011;42245;42.058;24.700;2023-06-26T09:39:14;12.13;;;6.63;;
56343;SDS011;42245;42.058;24.700;2023-06-26T09:41:43;9.77;;;6.43;;
56343;SDS011;42245;42.058;24.700;2023-06-26T09:44:10;10.13;;;6.70;;
56343;SDS011;42245;42.058;24.700;2023-06-26T09:46:38;9.73;;;6.35;;
56343;SDS011;42245;42.058;24.700;2023-06-26T09:49:09;10.15;;;6.47;;
56343;SDS011;42245;42.058;24.700;2023-06-26T09:51:36;8.52;;;6.28;;
56343;SDS011;42245;42.058;24.700;2023-06-26T09:54:03;9.80;;;6.38;;
56343;SDS011;42245;42.058;24.700;2023-06-26T09:56:29;8.82;;;6.82;;
56343;SDS011;42245;42.058;24.700;2023-06-26T09:58:56;10.85;;;6.80;;
56343;SDS011;42245;42.058;24.700;2023-06-26T10:01:25;9.10;;;6.90;;
56343;SDS011;42245;42.058;24.700;2023-06-26T10:03:50;12.15;;;6.82;;
56343;SDS011;42245;42.058;24.700;2023-06-26T10:06:20;8.52;;;6.50;;
56343;SDS011;42245;42.058;24.700;2023-06-26T10:08:54;12.48;;;6.55;;
56343;SDS011;42245;42.058;24.700;2023-06-26T10:11:21;9.50;;;6.88;;
56343;SDS011;42245;42.058;24.700;2023-06-26T10:13:47;11.70;;;7.10;;
56343;SDS011;42245;42.058;24.700;2023-06-26T10:16:16;9.35;;;6.80;;
56343;SDS011;42245;42.058;24.700;2023-06-26T10:18:44;12.90;;;7.72;;
56343;SDS011;42245;42.058;24.700;2023-06-26T10:21:10;12.85;;;7.82;;
56343;SDS011;42245;42.058;24.700;2023-06-26T10:23:36;13.85;;;8.05;;
56343;SDS011;42245;42.058;24.700;2023-06-26T10:26:05;10.93;;;7.85;;
56343;SDS011;42245;42.058;24.700;2023-06-26T10:28:31;10.55;;;7.20;;
56343;SDS011;42245;42.058;24.700;2023-06-26T10:30:58;16.63;;;8.07;;
56343;SDS011;42245;42.058;24.700;2023-06-26T10:33:23;11.68;;;7.32;;
56343;SDS011;42245;42.058;24.700;2023-06-26T10:35:49;9.25;;;7.20;;
56343;SDS011;42245;42.058;24.700;2023-06-26T10:38:14;11.30;;;7.40;;
56343;SDS011;42245;42.058;24.700;2023-06-26T10:40:44;12.93;;;8.50;;
56343;SDS011;42245;42.058;24.700;2023-06-26T10:43:11;12.70;;;7.80;;
56343;SDS011;42245;42.058;24.700;2023-06-26T10:45:43;9.70;;;7.18;;
56343;SDS011;42245;42.058;24.700;2023-06-26T10:48:09;13.07;;;7.10;;
56343;SDS011;42245;42.058;24.700;2023-06-26T10:50:35;10.93;;;6.85;;
56343;SDS011;42245;42.058;24.700;2023-06-26T10:53:21;9.18;;;6.90;;
56343;SDS011;42245;42.058;24.700;2023-06-26T10:56:04;9.70;;;7.00;;
56343;SDS011;42245;42.058;24.700;2023-06-26T10:58:34;8.25;;;6.32;;
56343;SDS011;42245;42.058;24.700;2023-06-26T11:06:39;9.43;;;6.18;;
56343;SDS011;42245;42.058;24.700;2023-06-26T11:14:18;8.23;;;6.13;;
56343;SDS011;42245;42.058;24.700;2023-06-26T11:16:44;6.97;;;5.72;;
56343;SDS011;42245;42.058;24.700;2023-06-26T11:19:10;11.95;;;5.90;;
56343;SDS011;42245;42.058;24.700;2023-06-26T11:21:39;7.68;;;5.95;;
56343;SDS011;42245;42.058;24.700;2023-06-26T11:24:04;8.55;;;5.90;;
56343;SDS011;42245;42.058;24.700;2023-06-26T11:26:31;8.38;;;5.82;;
56343;SDS011;42245;42.058;24.700;2023-06-26T11:29:03;7.80;;;5.60;;
56343;SDS011;42245;42.058;24.700;2023-06-26T11:31:29;6.97;;;5.60;;
56343;SDS011;42245;42.058;24.700;2023-06-26T11:33:57;8.13;;;5.53;;
56343;SDS011;42245;42.058;24.700;2023-06-26T11:36:26;7.53;;;5.43;;
56343;SDS011;42245;42.058;24.700;2023-06-26T11:38:55;7.25;;;5.47;;
56343;SDS011;42245;42.058;24.700;2023-06-26T11:41:21;8.85;;;5.07;;
56343;SDS011;42245;42.058;24.700;2023-06-26T11:43:48;7.10;;;5.32;;
56343;SDS011;42245;42.058;24.700;2023-06-26T11:46:15;6.82;;;4.88;;
56343;SDS011;42245;42.058;24.700;2023-06-26T11:48:42;6.45;;;5.60;;
56343;SDS011;42245;42.058;24.700;2023-06-26T11:51:07;11.13;;;5.10;;
56343;SDS011;42245;42.058;24.700;2023-06-26T11:53:38;8.25;;;5.35;;
56343;SDS011;42245;42.058;24.700;2023-06-26T11:56:11;6.82;;;5.30;;
56343;SDS011;42245;42.058;24.700;2023-06-26T12:01:36;8.43;;;5.10;;
56343;SDS011;42245;42.058;24.700;2023-06-26T12:04:03;10.23;;;5.22;;
56343;SDS011;42245;42.058;24.700;2023-06-26T12:06:30;9.27;;;5.70;;
56343;SDS011;42245;42.058;24.700;2023-06-26T12:08:57;10.07;;;5.45;;
56343;SDS011;42245;42.058;24.700;2023-06-26T12:11:24;6.97;;;5.45;;
56343;SDS011;42245;42.058;24.700;2023-06-26T12:13:50;7.65;;;5.38;;
56343;SDS011;42245;42.058;24.700;2023-06-26T12:16:15;10.40;;;6.03;;
56343;SDS011;42245;42.058;24.700;2023-06-26T12:18:41;9.15;;;5.70;;
56343;SDS011;42245;42.058;24.700;2023-06-26T12:21:06;10.38;;;5.60;;
56343;SDS011;42245;42.058;24.700;2023-06-26T12:23:32;9.38;;;6.10;;
56343;SDS011;42245;42.058;24.700;2023-06-26T12:26:15;9.35;;;5.88;;
56343;SDS011;42245;42.058;24.700;2023-06-26T12:28:43;8.75;;;5.40;;
56343;SDS011;42245;42.058;24.700;2023-06-26T12:31:16;9.40;;;5.57;;
56343;SDS011;42245;42.058;24.700;2023-06-26T12:33:44;8.95;;;5.93;;
56343;SDS011;42245;42.058;24.700;2023-06-26T12:36:13;8.20;;;5.40;;
56343;SDS011;42245;42.058;24.700;2023-06-26T12:38:40;8.07;;;5.25;;
56343;SDS011;42245;42.058;24.700;2023-06-26T12:41:11;9.65;;;5.35;;
56343;SDS011;42245;42.058;24.700;2023-06-26T12:43:38;8.18;;;5.20;;
56343;SDS011;42245;42.058;24.700;2023-06-26T12:46:04;8.82;;;5.68;;
56343;SDS011;42245;42.058;24.700;2023-06-26T12:48:39;7.85;;;4.55;;
56343;SDS011;42245;42.058;24.700;2023-06-26T12:51:11;5.25;;;4.70;;
56343;SDS011;42245;42.058;24.700;2023-06-26T12:53:38;8.23;;;5.30;;
56343;SDS011;42245;42.058;24.700;2023-06-26T12:56:07;9.02;;;5.05;;
56343;SDS011;42245;42.058;24.700;2023-06-26T12:58:33;7.20;;;4.55;;
56343;SDS011;42245;42.058;24.700;2023-06-26T13:00:59;9.68;;;4.30;;
56343;SDS011;42245;42.058;24.700;2023-06-26T13:03:28;9.45;;;4.43;;
56343;SDS011;42245;42.058;24.700;2023-06-26T13:05:53;6.13;;;4.07;;
56343;SDS011;42245;42.058;24.700;2023-06-26T13:08:18;7.43;;;4.38;;
56343;SDS011;42245;42.058;24.700;2023-06-26T13:10:44;7.45;;;4.50;;
56343;SDS011;42245;42.058;24.700;2023-06-26T13:13:10;7.35;;;4.70;;
56343;SDS011;42245;42.058;24.700;2023-06-26T13:15:36;9.25;;;4.40;;
56343;SDS011;42245;42.058;24.700;2023-06-26T13:18:01;6.05;;;4.45;;
56343;SDS011;42245;42.058;24.700;2023-06-26T13:20:27;13.80;;;6.07;;
56343;SDS011;42245;42.058;24.700;2023-06-26T13:22:53;11.23;;;6.15;;
56343;SDS011;42245;42.058;24.700;2023-06-26T13:25:19;10.95;;;5.72;;
56343;SDS011;42245;42.058;24.700;2023-06-26T13:27:45;8.23;;;5.82;;
56343;SDS011;42245;42.058;24.700;2023-06-26T13:30:10;9.65;;;6.18;;
56343;SDS011;42245;42.058;24.700;2023-06-26T13:32:36;9.30;;;6.47;;
56343;SDS011;42245;42.058;24.700;2023-06-26T13:35:02;9.85;;;6.10;;
56343;SDS011;42245;42.058;24.700;2023-06-26T13:37:28;7.78;;;5.90;;
56343;SDS011;42245;42.058;24.700;2023-06-26T13:39:54;7.95;;;5.40;;
56343;SDS011;42245;42.058;24.700;2023-06-26T13:42:19;5.63;;;4.43;;
56343;SDS011;42245;42.058;24.700;2023-06-26T13:44:44;6.95;;;5.18;;
56343;SDS011;42245;42.058;24.700;2023-06-26T13:47:12;7.03;;;4.53;;
56343;SDS011;42245;42.058;24.700;2023-06-26T13:49:38;7.43;;;4.40;;
56343;SDS011;42245;42.058;24.700;2023-06-26T13:52:04;10.23;;;5.07;;
56343;SDS011;42245;42.058;24.700;2023-06-26T13:54:32;6.93;;;4.20;;
56343;SDS011;42245;42.058;24.700;2023-06-26T13:56:59;7.10;;;4.88;;
56343;SDS011;42245;42.058;24.700;2023-06-26T13:59:27;7.50;;;5.15;;
56343;SDS011;42245;42.058;24.700;2023-06-26T14:01:52;7.20;;;5.00;;
56343;SDS011;42245;42.058;24.700;2023-06-26T14:04:18;6.55;;;4.90;;
56343;SDS011;42245;42.058;24.700;2023-06-26T14:06:43;6.40;;;5.05;;
56343;SDS011;42245;42.058;24.700;2023-06-26T14:09:10;5.38;;;4.68;;
56343;SDS011;42245;42.058;24.700;2023-06-26T14:11:36;6.47;;;5.10;;
56343;SDS011;42245;42.058;24.700;2023-06-26T14:14:01;7.00;;;4.45;;
56343;SDS011;42245;42.058;24.700;2023-06-26T14:16:27;6.63;;;4.93;;
56343;SDS011;42245;42.058;24.700;2023-06-26T14:18:54;7.40;;;5.00;;
56343;SDS011;42245;42.058;24.700;2023-06-26T14:21:20;5.38;;;4.60;;
56343;SDS011;42245;42.058;24.700;2023-06-26T14:23:46;8.15;;;4.72;;
56343;SDS011;42245;42.058;24.700;2023-06-26T14:26:11;6.35;;;4.80;;
56343;SDS011;42245;42.058;24.700;2023-06-26T14:28:37;7.18;;;4.80;;
56343;SDS011;42245;42.058;24.700;2023-06-26T14:31:03;6.35;;;4.38;;
56343;SDS011;42245;42.058;24.700;2023-06-26T14:33:29;7.05;;;4.63;;
56343;SDS011;42245;42.058;24.700;2023-06-26T14:35:55;8.05;;;4.88;;
56343;SDS011;42245;42.058;24.700;2023-06-26T14:38:20;7.45;;;4.97;;
56343;SDS011;42245;42.058;24.700;2023-06-26T14:40:46;5.80;;;4.80;;
56343;SDS011;42245;42.058;24.700;2023-06-26T14:43:11;7.47;;;4.78;;